Terminal Aerodrome Forecast
Issued by NWS

Home | Current Version | Previous Version | Text Only | Print | Product List | Glossary On
Versions: 1 2 3 4 5 6 7 8 9 10 11 12 13 14 15 16
988
FTUS44 KLZK 282214 AAB
TAFPBF
TAF AMD
KPBF 282214Z 2822/2918 28010G20KT P6SM SKC
     FM290100 30003KT P6SM SKC
     FM291600 33006KT P6SM SKC=

USA.gov is the U.S. government's official web portal to all federal, state and local government web resources and services.